Thomasville, North Carolina
Current Conditions -  °F | °C
As of 2:15 PM on Friday 21 Nov 2014 (Local Time) from KEXX Reporting Station
Clear Clear  
Wind Chill: 48°   Ceiling: Unl
Heat Index: 50°   Visibility: 10mi
Dew Point:   Wind: 5mph
Humidity: 19%   Direction: 340°NNW
Pressure: 30.4"   Gusts: NA
Location:  35.88°N, 80.08°W
Report Text: KEXX 211915Z AUTO 34004KT 10SM CLR 10/M13 A3040 RMK AO2 T00981132
Loading
Personal Weather Stations






























Interactive Weather Map New forecast layout! Learn more

10-Day Weather Forecast

Advertisements
Track Severe Weather on mobile